sensor_id;sensor_type;location;lat;lon;timestamp;P1;durP1;ratioP1;P2;durP2;ratioP2
31126;SDS011;17775;57.948;12.514;2024-01-27T00:00:47;1.15;;;0.57;;
31126;SDS011;17775;57.948;12.514;2024-01-27T00:03:13;0.88;;;0.43;;
31126;SDS011;17775;57.948;12.514;2024-01-27T00:05:40;0.80;;;0.38;;
31126;SDS011;17775;57.948;12.514;2024-01-27T00:08:06;1.73;;;0.50;;
31126;SDS011;17775;57.948;12.514;2024-01-27T00:10:37;1.92;;;0.40;;
31126;SDS011;17775;57.948;12.514;2024-01-27T00:13:04;1.30;;;0.50;;
31126;SDS011;17775;57.948;12.514;2024-01-27T00:15:30;1.10;;;0.47;;
31126;SDS011;17775;57.948;12.514;2024-01-27T00:17:57;1.17;;;0.45;;
31126;SDS011;17775;57.948;12.514;2024-01-27T00:20:23;1.83;;;0.70;;
31126;SDS011;17775;57.948;12.514;2024-01-27T00:22:50;3.58;;;1.13;;
31126;SDS011;17775;57.948;12.514;2024-01-27T00:25:16;1.42;;;0.60;;
31126;SDS011;17775;57.948;12.514;2024-01-27T00:27:43;1.27;;;0.35;;
31126;SDS011;17775;57.948;12.514;2024-01-27T00:30:09;1.65;;;0.50;;
31126;SDS011;17775;57.948;12.514;2024-01-27T00:32:37;2.22;;;0.63;;
31126;SDS011;17775;57.948;12.514;2024-01-27T00:35:04;2.10;;;0.55;;
31126;SDS011;17775;57.948;12.514;2024-01-27T00:37:31;1.00;;;0.40;;
31126;SDS011;17775;57.948;12.514;2024-01-27T00:39:57;1.30;;;0.43;;
31126;SDS011;17775;57.948;12.514;2024-01-27T00:42:23;1.98;;;1.05;;
31126;SDS011;17775;57.948;12.514;2024-01-27T00:44:51;1.27;;;0.40;;
31126;SDS011;17775;57.948;12.514;2024-01-27T00:47:18;1.45;;;0.43;;
31126;SDS011;17775;57.948;12.514;2024-01-27T00:49:44;0.98;;;0.40;;
31126;SDS011;17775;57.948;12.514;2024-01-27T00:52:11;1.05;;;0.40;;
31126;SDS011;17775;57.948;12.514;2024-01-27T00:54:37;0.90;;;0.30;;
31126;SDS011;17775;57.948;12.514;2024-01-27T00:57:03;0.55;;;0.50;;
31126;SDS011;17775;57.948;12.514;2024-01-27T00:59:30;0.90;;;0.30;;
31126;SDS011;17775;57.948;12.514;2024-01-27T01:01:56;1.00;;;0.30;;
31126;SDS011;17775;57.948;12.514;2024-01-27T01:04:23;1.45;;;0.30;;
31126;SDS011;17775;57.948;12.514;2024-01-27T01:06:49;1.83;;;0.47;;
31126;SDS011;17775;57.948;12.514;2024-01-27T01:09:16;1.00;;;0.40;;
31126;SDS011;17775;57.948;12.514;2024-01-27T01:11:43;0.60;;;0.20;;
31126;SDS011;17775;57.948;12.514;2024-01-27T01:14:09;0.55;;;0.30;;
31126;SDS011;17775;57.948;12.514;2024-01-27T01:16:36;0.52;;;0.30;;
31126;SDS011;17775;57.948;12.514;2024-01-27T01:19:02;0.50;;;0.20;;
31126;SDS011;17775;57.948;12.514;2024-01-27T01:21:29;0.40;;;0.30;;
31126;SDS011;17775;57.948;12.514;2024-01-27T01:23:56;0.20;;;0.20;;
31126;SDS011;17775;57.948;12.514;2024-01-27T01:26:24;0.40;;;0.28;;
31126;SDS011;17775;57.948;12.514;2024-01-27T01:28:52;0.28;;;0.20;;
31126;SDS011;17775;57.948;12.514;2024-01-27T01:31:19;0.20;;;0.20;;
31126;SDS011;17775;57.948;12.514;2024-01-27T01:33:45;0.35;;;0.22;;
31126;SDS011;17775;57.948;12.514;2024-01-27T01:36:12;0.20;;;0.20;;
31126;SDS011;17775;57.948;12.514;2024-01-27T01:38:38;0.20;;;0.20;;
31126;SDS011;17775;57.948;12.514;2024-01-27T01:41:05;0.25;;;0.20;;
31126;SDS011;17775;57.948;12.514;2024-01-27T01:43:31;0.20;;;0.20;;
31126;SDS011;17775;57.948;12.514;2024-01-27T01:45:58;0.38;;;0.38;;
31126;SDS011;17775;57.948;12.514;2024-01-27T01:48:24;0.20;;;0.20;;
31126;SDS011;17775;57.948;12.514;2024-01-27T01:50:51;0.73;;;0.20;;
31126;SDS011;17775;57.948;12.514;2024-01-27T01:53:18;0.45;;;0.30;;
31126;SDS011;17775;57.948;12.514;2024-01-27T01:55:44;0.95;;;0.20;;
31126;SDS011;17775;57.948;12.514;2024-01-27T01:58:12;0.20;;;0.20;;
31126;SDS011;17775;57.948;12.514;2024-01-27T02:00:39;0.85;;;0.30;;
31126;SDS011;17775;57.948;12.514;2024-01-27T02:03:05;0.25;;;0.20;;
31126;SDS011;17775;57.948;12.514;2024-01-27T02:05:36;0.20;;;0.20;;
31126;SDS011;17775;57.948;12.514;2024-01-27T02:08:02;0.43;;;0.20;;
31126;SDS011;17775;57.948;12.514;2024-01-27T02:10:30;0.55;;;0.22;;
31126;SDS011;17775;57.948;12.514;2024-01-27T02:13:03;0.52;;;0.30;;
31126;SDS011;17775;57.948;12.514;2024-01-27T02:15:31;0.55;;;0.30;;
31126;SDS011;17775;57.948;12.514;2024-01-27T02:18:01;1.08;;;0.30;;
31126;SDS011;17775;57.948;12.514;2024-01-27T02:20:27;0.20;;;0.20;;
31126;SDS011;17775;57.948;12.514;2024-01-27T02:22:54;0.45;;;0.30;;
31126;SDS011;17775;57.948;12.514;2024-01-27T02:25:20;0.20;;;0.20;;
31126;SDS011;17775;57.948;12.514;2024-01-27T02:27:47;0.30;;;0.30;;
31126;SDS011;17775;57.948;12.514;2024-01-27T02:30:14;0.35;;;0.28;;
31126;SDS011;17775;57.948;12.514;2024-01-27T02:32:40;1.05;;;0.57;;
31126;SDS011;17775;57.948;12.514;2024-01-27T02:35:07;1.63;;;0.65;;
31126;SDS011;17775;57.948;12.514;2024-01-27T02:37:36;0.90;;;0.40;;
31126;SDS011;17775;57.948;12.514;2024-01-27T02:40:03;0.98;;;0.40;;
31126;SDS011;17775;57.948;12.514;2024-01-27T02:42:29;0.35;;;0.30;;
31126;SDS011;17775;57.948;12.514;2024-01-27T02:44:56;0.55;;;0.30;;
31126;SDS011;17775;57.948;12.514;2024-01-27T02:47:22;0.20;;;0.20;;
31126;SDS011;17775;57.948;12.514;2024-01-27T02:49:49;0.25;;;0.25;;
31126;SDS011;17775;57.948;12.514;2024-01-27T02:52:15;0.65;;;0.30;;
31126;SDS011;17775;57.948;12.514;2024-01-27T02:54:42;0.32;;;0.32;;
31126;SDS011;17775;57.948;12.514;2024-01-27T02:57:08;0.22;;;0.20;;
31126;SDS011;17775;57.948;12.514;2024-01-27T02:59:34;1.65;;;0.30;;
31126;SDS011;17775;57.948;12.514;2024-01-27T03:02:01;0.55;;;0.25;;
31126;SDS011;17775;57.948;12.514;2024-01-27T03:04:28;0.40;;;0.30;;
31126;SDS011;17775;57.948;12.514;2024-01-27T03:06:54;0.20;;;0.20;;
31126;SDS011;17775;57.948;12.514;2024-01-27T03:09:21;0.20;;;0.20;;
31126;SDS011;17775;57.948;12.514;2024-01-27T03:11:47;0.20;;;0.20;;
31126;SDS011;17775;57.948;12.514;2024-01-27T03:14:13;0.30;;;0.20;;
31126;SDS011;17775;57.948;12.514;2024-01-27T03:16:43;0.20;;;0.20;;
31126;SDS011;17775;57.948;12.514;2024-01-27T03:19:10;0.20;;;0.20;;
31126;SDS011;17775;57.948;12.514;2024-01-27T03:21:37;0.20;;;0.20;;
31126;SDS011;17775;57.948;12.514;2024-01-27T03:24:03;0.22;;;0.22;;
31126;SDS011;17775;57.948;12.514;2024-01-27T03:26:30;0.20;;;0.20;;
31126;SDS011;17775;57.948;12.514;2024-01-27T03:28:57;0.55;;;0.25;;
31126;SDS011;17775;57.948;12.514;2024-01-27T03:31:29;0.30;;;0.20;;
31126;SDS011;17775;57.948;12.514;2024-01-27T03:33:56;0.50;;;0.30;;
31126;SDS011;17775;57.948;12.514;2024-01-27T03:36:23;0.20;;;0.20;;
31126;SDS011;17775;57.948;12.514;2024-01-27T03:38:49;0.40;;;0.30;;
31126;SDS011;17775;57.948;12.514;2024-01-27T03:41:16;0.20;;;0.20;;
31126;SDS011;17775;57.948;12.514;2024-01-27T03:43:42;0.20;;;0.20;;
31126;SDS011;17775;57.948;12.514;2024-01-27T03:46:09;0.20;;;0.20;;
31126;SDS011;17775;57.948;12.514;2024-01-27T03:48:35;0.20;;;0.20;;
31126;SDS011;17775;57.948;12.514;2024-01-27T03:51:05;0.20;;;0.20;;
31126;SDS011;17775;57.948;12.514;2024-01-27T03:53:32;0.20;;;0.20;;
31126;SDS011;17775;57.948;12.514;2024-01-27T03:55:58;0.17;;;0.17;;
31126;SDS011;17775;57.948;12.514;2024-01-27T03:58:25;0.20;;;0.20;;
31126;SDS011;17775;57.948;12.514;2024-01-27T04:00:52;0.28;;;0.20;;
31126;SDS011;17775;57.948;12.514;2024-01-27T04:03:18;0.20;;;0.20;;
31126;SDS011;17775;57.948;12.514;2024-01-27T04:05:45;0.20;;;0.20;;
31126;SDS011;17775;57.948;12.514;2024-01-27T04:08:15;0.20;;;0.20;;
31126;SDS011;17775;57.948;12.514;2024-01-27T04:10:41;0.20;;;0.20;;
31126;SDS011;17775;57.948;12.514;2024-01-27T04:13:08;0.20;;;0.20;;
31126;SDS011;17775;57.948;12.514;2024-01-27T04:15:34;0.20;;;0.20;;
31126;SDS011;17775;57.948;12.514;2024-01-27T04:18:05;0.10;;;0.10;;
31126;SDS011;17775;57.948;12.514;2024-01-27T04:20:34;0.20;;;0.20;;
31126;SDS011;17775;57.948;12.514;2024-01-27T04:23:01;0.15;;;0.15;;
31126;SDS011;17775;57.948;12.514;2024-01-27T04:25:28;0.20;;;0.20;;
31126;SDS011;17775;57.948;12.514;2024-01-27T04:27:55;0.65;;;0.30;;
31126;SDS011;17775;57.948;12.514;2024-01-27T04:30:21;0.20;;;0.20;;
31126;SDS011;17775;57.948;12.514;2024-01-27T04:32:48;0.20;;;0.20;;
31126;SDS011;17775;57.948;12.514;2024-01-27T04:35:16;0.20;;;0.20;;
31126;SDS011;17775;57.948;12.514;2024-01-27T04:37:42;0.20;;;0.20;;
31126;SDS011;17775;57.948;12.514;2024-01-27T04:40:10;0.20;;;0.20;;
31126;SDS011;17775;57.948;12.514;2024-01-27T04:42:38;0.20;;;0.20;;
31126;SDS011;17775;57.948;12.514;2024-01-27T04:45:05;0.20;;;0.20;;
31126;SDS011;17775;57.948;12.514;2024-01-27T04:47:32;0.20;;;0.20;;
31126;SDS011;17775;57.948;12.514;2024-01-27T04:49:58;0.20;;;0.20;;
31126;SDS011;17775;57.948;12.514;2024-01-27T04:52:25;0.20;;;0.20;;
31126;SDS011;17775;57.948;12.514;2024-01-27T04:54:52;0.20;;;0.20;;
31126;SDS011;17775;57.948;12.514;2024-01-27T04:57:18;0.20;;;0.20;;
31126;SDS011;17775;57.948;12.514;2024-01-27T04:59:45;0.10;;;0.10;;
31126;SDS011;17775;57.948;12.514;2024-01-27T05:02:11;0.20;;;0.20;;
31126;SDS011;17775;57.948;12.514;2024-01-27T05:04:38;0.20;;;0.20;;
31126;SDS011;17775;57.948;12.514;2024-01-27T05:07:04;0.20;;;0.20;;
31126;SDS011;17775;57.948;12.514;2024-01-27T05:09:33;0.20;;;0.20;;
31126;SDS011;17775;57.948;12.514;2024-01-27T05:12:00;0.20;;;0.20;;
31126;SDS011;17775;57.948;12.514;2024-01-27T05:14:26;0.20;;;0.20;;
31126;SDS011;17775;57.948;12.514;2024-01-27T05:16:55;0.80;;;0.30;;
31126;SDS011;17775;57.948;12.514;2024-01-27T05:19:22;0.20;;;0.20;;
31126;SDS011;17775;57.948;12.514;2024-01-27T05:21:48;0.30;;;0.20;;
31126;SDS011;17775;57.948;12.514;2024-01-27T05:24:15;0.20;;;0.20;;
31126;SDS011;17775;57.948;12.514;2024-01-27T05:26:42;0.70;;;0.20;;
31126;SDS011;17775;57.948;12.514;2024-01-27T05:29:08;0.20;;;0.20;;
31126;SDS011;17775;57.948;12.514;2024-01-27T05:31:35;0.30;;;0.30;;
31126;SDS011;17775;57.948;12.514;2024-01-27T05:34:01;0.40;;;0.20;;
31126;SDS011;17775;57.948;12.514;2024-01-27T05:36:30;0.20;;;0.20;;
31126;SDS011;17775;57.948;12.514;2024-01-27T05:38:57;0.30;;;0.30;;
31126;SDS011;17775;57.948;12.514;2024-01-27T05:41:26;0.20;;;0.20;;
31126;SDS011;17775;57.948;12.514;2024-01-27T05:43:55;0.20;;;0.20;;
31126;SDS011;17775;57.948;12.514;2024-01-27T05:46:24;1.02;;;0.20;;
31126;SDS011;17775;57.948;12.514;2024-01-27T05:48:51;0.20;;;0.20;;
31126;SDS011;17775;57.948;12.514;2024-01-27T05:51:20;0.20;;;0.20;;
31126;SDS011;17775;57.948;12.514;2024-01-27T05:53:47;0.20;;;0.20;;
31126;SDS011;17775;57.948;12.514;2024-01-27T05:56:13;0.28;;;0.20;;
31126;SDS011;17775;57.948;12.514;2024-01-27T05:58:40;0.20;;;0.20;;
31126;SDS011;17775;57.948;12.514;2024-01-27T06:01:06;0.20;;;0.20;;
31126;SDS011;17775;57.948;12.514;2024-01-27T06:03:34;0.20;;;0.20;;
31126;SDS011;17775;57.948;12.514;2024-01-27T06:06:02;0.28;;;0.20;;
31126;SDS011;17775;57.948;12.514;2024-01-27T06:08:29;0.20;;;0.20;;
31126;SDS011;17775;57.948;12.514;2024-01-27T06:10:55;0.25;;;0.25;;
31126;SDS011;17775;57.948;12.514;2024-01-27T06:13:22;0.20;;;0.20;;
31126;SDS011;17775;57.948;12.514;2024-01-27T06:15:48;0.30;;;0.30;;
31126;SDS011;17775;57.948;12.514;2024-01-27T06:18:15;0.60;;;0.20;;
31126;SDS011;17775;57.948;12.514;2024-01-27T06:20:41;0.65;;;0.20;;
31126;SDS011;17775;57.948;12.514;2024-01-27T06:23:08;0.32;;;0.20;;
31126;SDS011;17775;57.948;12.514;2024-01-27T06:25:38;0.47;;;0.20;;
31126;SDS011;17775;57.948;12.514;2024-01-27T06:28:04;0.38;;;0.30;;
31126;SDS011;17775;57.948;12.514;2024-01-27T06:30:31;0.73;;;0.30;;
31126;SDS011;17775;57.948;12.514;2024-01-27T06:32:57;0.30;;;0.30;;
31126;SDS011;17775;57.948;12.514;2024-01-27T06:35:24;0.30;;;0.30;;
31126;SDS011;17775;57.948;12.514;2024-01-27T06:37:50;0.43;;;0.30;;
31126;SDS011;17775;57.948;12.514;2024-01-27T06:40:17;0.80;;;0.30;;
31126;SDS011;17775;57.948;12.514;2024-01-27T06:42:43;0.32;;;0.30;;
31126;SDS011;17775;57.948;12.514;2024-01-27T06:45:12;0.20;;;0.20;;
31126;SDS011;17775;57.948;12.514;2024-01-27T06:47:39;0.25;;;0.25;;
31126;SDS011;17775;57.948;12.514;2024-01-27T06:50:06;0.20;;;0.20;;
31126;SDS011;17775;57.948;12.514;2024-01-27T06:52:32;0.40;;;0.30;;
31126;SDS011;17775;57.948;12.514;2024-01-27T06:54:59;0.20;;;0.20;;
31126;SDS011;17775;57.948;12.514;2024-01-27T06:57:25;0.35;;;0.20;;
31126;SDS011;17775;57.948;12.514;2024-01-27T06:59:52;0.20;;;0.20;;
31126;SDS011;17775;57.948;12.514;2024-01-27T07:02:22;0.20;;;0.20;;
31126;SDS011;17775;57.948;12.514;2024-01-27T07:04:48;0.22;;;0.22;;
31126;SDS011;17775;57.948;12.514;2024-01-27T07:07:15;2.05;;;0.40;;
31126;SDS011;17775;57.948;12.514;2024-01-27T07:09:41;0.88;;;0.30;;
31126;SDS011;17775;57.948;12.514;2024-01-27T07:12:08;0.55;;;0.40;;
31126;SDS011;17775;57.948;12.514;2024-01-27T07:14:35;0.75;;;0.32;;
31126;SDS011;17775;57.948;12.514;2024-01-27T07:17:03;0.32;;;0.30;;
31126;SDS011;17775;57.948;12.514;2024-01-27T07:19:30;0.43;;;0.30;;
31126;SDS011;17775;57.948;12.514;2024-01-27T07:21:56;0.40;;;0.30;;
31126;SDS011;17775;57.948;12.514;2024-01-27T07:24:23;0.50;;;0.30;;
31126;SDS011;17775;57.948;12.514;2024-01-27T07:26:49;0.20;;;0.20;;
31126;SDS011;17775;57.948;12.514;2024-01-27T07:29:19;0.23;;;0.23;;
31126;SDS011;17775;57.948;12.514;2024-01-27T07:31:46;0.20;;;0.20;;
31126;SDS011;17775;57.948;12.514;2024-01-27T07:34:13;0.20;;;0.20;;
31126;SDS011;17775;57.948;12.514;2024-01-27T07:36:40;0.20;;;0.20;;
31126;SDS011;17775;57.948;12.514;2024-01-27T07:39:06;0.20;;;0.20;;
31126;SDS011;17775;57.948;12.514;2024-01-27T07:41:33;0.30;;;0.30;;
31126;SDS011;17775;57.948;12.514;2024-01-27T07:44:14;0.20;;;0.20;;
31126;SDS011;17775;57.948;12.514;2024-01-27T07:46:41;0.20;;;0.20;;
31126;SDS011;17775;57.948;12.514;2024-01-27T07:49:07;0.30;;;0.22;;
31126;SDS011;17775;57.948;12.514;2024-01-27T07:51:34;0.30;;;0.20;;
31126;SDS011;17775;57.948;12.514;2024-01-27T07:54:01;0.20;;;0.20;;
31126;SDS011;17775;57.948;12.514;2024-01-27T07:56:28;0.17;;;0.17;;
31126;SDS011;17775;57.948;12.514;2024-01-27T07:58:54;0.20;;;0.20;;
31126;SDS011;17775;57.948;12.514;2024-01-27T08:01:21;0.17;;;0.17;;
31126;SDS011;17775;57.948;12.514;2024-01-27T08:03:48;0.15;;;0.15;;
31126;SDS011;17775;57.948;12.514;2024-01-27T08:06:26;0.20;;;0.20;;
31126;SDS011;17775;57.948;12.514;2024-01-27T08:08:53;0.20;;;0.20;;
31126;SDS011;17775;57.948;12.514;2024-01-27T08:11:20;0.20;;;0.20;;
31126;SDS011;17775;57.948;12.514;2024-01-27T08:13:46;0.20;;;0.20;;
31126;SDS011;17775;57.948;12.514;2024-01-27T08:16:13;0.65;;;0.30;;
31126;SDS011;17775;57.948;12.514;2024-01-27T08:18:44;0.40;;;0.30;;
31126;SDS011;17775;57.948;12.514;2024-01-27T08:23:38;0.20;;;0.20;;
31126;SDS011;17775;57.948;12.514;2024-01-27T08:26:04;0.20;;;0.20;;
31126;SDS011;17775;57.948;12.514;2024-01-27T08:28:31;0.20;;;0.20;;
31126;SDS011;17775;57.948;12.514;2024-01-27T08:30:57;0.50;;;0.32;;
31126;SDS011;17775;57.948;12.514;2024-01-27T08:33:26;0.52;;;0.30;;
31126;SDS011;17775;57.948;12.514;2024-01-27T08:35:52;0.20;;;0.20;;
31126;SDS011;17775;57.948;12.514;2024-01-27T08:38:19;2.03;;;0.60;;
31126;SDS011;17775;57.948;12.514;2024-01-27T08:40:46;1.63;;;0.50;;
31126;SDS011;17775;57.948;12.514;2024-01-27T08:43:12;1.70;;;0.40;;
31126;SDS011;17775;57.948;12.514;2024-01-27T08:45:40;0.50;;;0.20;;
31126;SDS011;17775;57.948;12.514;2024-01-27T08:48:07;0.45;;;0.30;;
31126;SDS011;17775;57.948;12.514;2024-01-27T08:50:33;0.32;;;0.28;;
31126;SDS011;17775;57.948;12.514;2024-01-27T08:53:03;1.77;;;0.82;;
31126;SDS011;17775;57.948;12.514;2024-01-27T08:55:29;1.52;;;0.57;;
31126;SDS011;17775;57.948;12.514;2024-01-27T08:57:56;2.67;;;0.50;;
31126;SDS011;17775;57.948;12.514;2024-01-27T09:00:23;0.88;;;0.43;;
31126;SDS011;17775;57.948;12.514;2024-01-27T09:02:50;3.05;;;0.40;;
31126;SDS011;17775;57.948;12.514;2024-01-27T09:05:17;1.20;;;0.57;;
31126;SDS011;17775;57.948;12.514;2024-01-27T09:07:43;0.75;;;0.40;;
31126;SDS011;17775;57.948;12.514;2024-01-27T09:10:10;0.73;;;0.57;;
31126;SDS011;17775;57.948;12.514;2024-01-27T09:12:39;0.50;;;0.32;;
31126;SDS011;17775;57.948;12.514;2024-01-27T09:15:05;0.68;;;0.40;;
31126;SDS011;17775;57.948;12.514;2024-01-27T09:17:33;1.33;;;0.60;;
31126;SDS011;17775;57.948;12.514;2024-01-27T09:20:00;1.73;;;0.50;;
31126;SDS011;17775;57.948;12.514;2024-01-27T09:22:27;1.15;;;0.40;;
31126;SDS011;17775;57.948;12.514;2024-01-27T09:24:53;1.08;;;0.40;;
31126;SDS011;17775;57.948;12.514;2024-01-27T09:27:24;0.40;;;0.40;;
31126;SDS011;17775;57.948;12.514;2024-01-27T09:29:51;0.40;;;0.40;;
31126;SDS011;17775;57.948;12.514;2024-01-27T09:32:17;2.63;;;0.68;;
31126;SDS011;17775;57.948;12.514;2024-01-27T09:34:44;0.75;;;0.40;;
31126;SDS011;17775;57.948;12.514;2024-01-27T09:37:10;1.42;;;0.70;;
31126;SDS011;17775;57.948;12.514;2024-01-27T09:39:37;1.50;;;0.60;;
31126;SDS011;17775;57.948;12.514;2024-01-27T09:42:04;4.38;;;0.90;;
31126;SDS011;17775;57.948;12.514;2024-01-27T09:44:35;5.43;;;1.52;;
31126;SDS011;17775;57.948;12.514;2024-01-27T09:47:02;7.75;;;1.83;;
31126;SDS011;17775;57.948;12.514;2024-01-27T09:49:29;4.22;;;0.98;;
31126;SDS011;17775;57.948;12.514;2024-01-27T09:51:56;5.03;;;1.45;;
31126;SDS011;17775;57.948;12.514;2024-01-27T09:54:23;5.70;;;1.23;;
31126;SDS011;17775;57.948;12.514;2024-01-27T09:56:49;2.22;;;1.10;;
31126;SDS011;17775;57.948;12.514;2024-01-27T09:59:17;2.30;;;0.95;;
31126;SDS011;17775;57.948;12.514;2024-01-27T10:01:45;4.15;;;0.90;;
31126;SDS011;17775;57.948;12.514;2024-01-27T10:04:11;4.95;;;1.30;;
31126;SDS011;17775;57.948;12.514;2024-01-27T10:06:40;6.28;;;1.50;;
31126;SDS011;17775;57.948;12.514;2024-01-27T10:09:07;7.22;;;2.05;;
31126;SDS011;17775;57.948;12.514;2024-01-27T10:11:34;10.20;;;2.10;;
31126;SDS011;17775;57.948;12.514;2024-01-27T10:14:01;5.25;;;2.03;;
31126;SDS011;17775;57.948;12.514;2024-01-27T10:16:28;8.90;;;2.40;;
31126;SDS011;17775;57.948;12.514;2024-01-27T10:19:05;7.45;;;2.40;;
31126;SDS011;17775;57.948;12.514;2024-01-27T10:21:31;5.30;;;1.90;;
31126;SDS011;17775;57.948;12.514;2024-01-27T10:23:59;9.48;;;2.38;;
31126;SDS011;17775;57.948;12.514;2024-01-27T10:26:26;7.40;;;2.45;;
31126;SDS011;17775;57.948;12.514;2024-01-27T10:28:53;10.13;;;2.67;;
31126;SDS011;17775;57.948;12.514;2024-01-27T10:31:28;9.35;;;2.30;;
31126;SDS011;17775;57.948;12.514;2024-01-27T10:33:55;11.05;;;2.22;;
31126;SDS011;17775;57.948;12.514;2024-01-27T10:36:23;8.63;;;2.00;;
31126;SDS011;17775;57.948;12.514;2024-01-27T10:38:50;8.32;;;2.33;;
31126;SDS011;17775;57.948;12.514;2024-01-27T10:41:25;7.88;;;1.98;;
31126;SDS011;17775;57.948;12.514;2024-01-27T10:43:53;8.55;;;1.83;;
31126;SDS011;17775;57.948;12.514;2024-01-27T10:46:21;8.68;;;2.05;;
31126;SDS011;17775;57.948;12.514;2024-01-27T10:48:51;16.48;;;2.60;;
31126;SDS011;17775;57.948;12.514;2024-01-27T10:51:40;10.93;;;3.15;;
31126;SDS011;17775;57.948;12.514;2024-01-27T10:54:09;4.88;;;1.67;;
31126;SDS011;17775;57.948;12.514;2024-01-27T10:56:37;9.63;;;2.38;;
31126;SDS011;17775;57.948;12.514;2024-01-27T10:59:08;6.40;;;1.83;;
31126;SDS011;17775;57.948;12.514;2024-01-27T11:01:36;6.00;;;1.80;;
31126;SDS011;17775;57.948;12.514;2024-01-27T11:04:05;6.00;;;2.10;;
31126;SDS011;17775;57.948;12.514;2024-01-27T11:06:34;9.90;;;2.40;;
31126;SDS011;17775;57.948;12.514;2024-01-27T11:09:01;8.98;;;2.03;;
31126;SDS011;17775;57.948;12.514;2024-01-27T11:11:31;4.85;;;1.35;;
31126;SDS011;17775;57.948;12.514;2024-01-27T11:13:58;7.38;;;1.50;;
31126;SDS011;17775;57.948;12.514;2024-01-27T11:16:24;7.45;;;2.03;;
31126;SDS011;17775;57.948;12.514;2024-01-27T11:18:51;4.85;;;1.58;;
31126;SDS011;17775;57.948;12.514;2024-01-27T11:21:18;11.48;;;2.33;;
31126;SDS011;17775;57.948;12.514;2024-01-27T11:23:44;8.63;;;2.47;;
31126;SDS011;17775;57.948;12.514;2024-01-27T11:26:17;10.43;;;2.33;;
31126;SDS011;17775;57.948;12.514;2024-01-27T11:28:44;8.02;;;1.67;;
31126;SDS011;17775;57.948;12.514;2024-01-27T11:31:10;7.13;;;1.48;;
31126;SDS011;17775;57.948;12.514;2024-01-27T11:33:41;14.63;;;2.50;;
31126;SDS011;17775;57.948;12.514;2024-01-27T11:36:14;10.02;;;2.03;;
31126;SDS011;17775;57.948;12.514;2024-01-27T11:38:43;10.80;;;2.53;;
31126;SDS011;17775;57.948;12.514;2024-01-27T11:41:10;5.80;;;2.10;;
31126;SDS011;17775;57.948;12.514;2024-01-27T11:43:36;7.90;;;1.90;;
31126;SDS011;17775;57.948;12.514;2024-01-27T11:46:03;9.63;;;2.15;;
31126;SDS011;17775;57.948;12.514;2024-01-27T11:48:29;9.98;;;2.60;;
31126;SDS011;17775;57.948;12.514;2024-01-27T11:51:02;9.45;;;2.75;;
31126;SDS011;17775;57.948;12.514;2024-01-27T11:53:28;11.50;;;2.13;;
31126;SDS011;17775;57.948;12.514;2024-01-27T11:55:55;5.60;;;1.63;;
31126;SDS011;17775;57.948;12.514;2024-01-27T11:58:25;6.05;;;1.85;;
31126;SDS011;17775;57.948;12.514;2024-01-27T12:00:51;8.85;;;2.28;;
31126;SDS011;17775;57.948;12.514;2024-01-27T12:03:18;5.28;;;1.70;;
31126;SDS011;17775;57.948;12.514;2024-01-27T12:05:44;6.88;;;1.98;;
31126;SDS011;17775;57.948;12.514;2024-01-27T12:08:13;4.45;;;1.35;;
31126;SDS011;17775;57.948;12.514;2024-01-27T12:10:40;4.95;;;2.00;;
31126;SDS011;17775;57.948;12.514;2024-01-27T12:13:06;9.98;;;2.00;;
31126;SDS011;17775;57.948;12.514;2024-01-27T12:15:33;4.47;;;1.48;;
31126;SDS011;17775;57.948;12.514;2024-01-27T12:18:00;4.15;;;1.40;;
31126;SDS011;17775;57.948;12.514;2024-01-27T12:20:27;5.90;;;1.38;;
31126;SDS011;17775;57.948;12.514;2024-01-27T12:23:03;7.18;;;2.03;;
31126;SDS011;17775;57.948;12.514;2024-01-27T12:25:30;7.82;;;1.85;;
31126;SDS011;17775;57.948;12.514;2024-01-27T12:27:56;8.10;;;1.95;;
31126;SDS011;17775;57.948;12.514;2024-01-27T12:30:27;3.85;;;1.50;;
31126;SDS011;17775;57.948;12.514;2024-01-27T12:32:55;4.75;;;1.77;;
31126;SDS011;17775;57.948;12.514;2024-01-27T12:35:23;8.60;;;2.30;;
31126;SDS011;17775;57.948;12.514;2024-01-27T12:37:50;8.43;;;1.75;;
31126;SDS011;17775;57.948;12.514;2024-01-27T12:40:21;7.05;;;1.60;;
31126;SDS011;17775;57.948;12.514;2024-01-27T12:42:50;8.07;;;2.40;;
31126;SDS011;17775;57.948;12.514;2024-01-27T12:45:16;7.18;;;1.73;;
31126;SDS011;17775;57.948;12.514;2024-01-27T12:47:43;4.05;;;1.75;;
31126;SDS011;17775;57.948;12.514;2024-01-27T12:50:11;5.65;;;1.92;;
31126;SDS011;17775;57.948;12.514;2024-01-27T12:52:38;10.35;;;2.10;;
31126;SDS011;17775;57.948;12.514;2024-01-27T12:55:05;9.23;;;2.20;;
31126;SDS011;17775;57.948;12.514;2024-01-27T12:57:31;7.47;;;2.20;;
31126;SDS011;17775;57.948;12.514;2024-01-27T12:59:58;15.32;;;3.17;;
31126;SDS011;17775;57.948;12.514;2024-01-27T13:02:24;9.70;;;2.90;;
31126;SDS011;17775;57.948;12.514;2024-01-27T13:04:51;8.38;;;2.58;;
31126;SDS011;17775;57.948;12.514;2024-01-27T13:07:18;8.77;;;2.67;;
31126;SDS011;17775;57.948;12.514;2024-01-27T13:09:44;6.07;;;2.33;;
31126;SDS011;17775;57.948;12.514;2024-01-27T13:12:11;5.13;;;1.83;;
31126;SDS011;17775;57.948;12.514;2024-01-27T13:14:37;13.05;;;2.80;;
31126;SDS011;17775;57.948;12.514;2024-01-27T13:17:04;13.98;;;3.35;;
31126;SDS011;17775;57.948;12.514;2024-01-27T13:19:31;14.88;;;3.25;;
31126;SDS011;17775;57.948;12.514;2024-01-27T13:21:58;11.23;;;3.33;;
31126;SDS011;17775;57.948;12.514;2024-01-27T13:24:24;7.85;;;2.72;;
31126;SDS011;17775;57.948;12.514;2024-01-27T13:26:52;9.35;;;2.83;;
31126;SDS011;17775;57.948;12.514;2024-01-27T13:29:19;7.68;;;2.92;;
31126;SDS011;17775;57.948;12.514;2024-01-27T13:31:46;6.78;;;2.30;;
31126;SDS011;17775;57.948;12.514;2024-01-27T13:34:13;7.82;;;2.38;;
31126;SDS011;17775;57.948;12.514;2024-01-27T13:36:40;7.82;;;2.50;;
31126;SDS011;17775;57.948;12.514;2024-01-27T13:39:07;8.38;;;2.53;;
31126;SDS011;17775;57.948;12.514;2024-01-27T13:41:34;10.40;;;3.15;;
31126;SDS011;17775;57.948;12.514;2024-01-27T13:44:01;15.30;;;3.17;;
31126;SDS011;17775;57.948;12.514;2024-01-27T13:46:28;7.70;;;3.00;;
31126;SDS011;17775;57.948;12.514;2024-01-27T13:48:54;9.90;;;3.10;;
31126;SDS011;17775;57.948;12.514;2024-01-27T13:51:21;9.38;;;2.63;;
31126;SDS011;17775;57.948;12.514;2024-01-27T13:53:48;10.10;;;2.80;;
31126;SDS011;17775;57.948;12.514;2024-01-27T13:56:15;21.92;;;4.00;;
31126;SDS011;17775;57.948;12.514;2024-01-27T13:58:42;10.45;;;3.22;;
31126;SDS011;17775;57.948;12.514;2024-01-27T14:01:08;12.73;;;3.63;;
31126;SDS011;17775;57.948;12.514;2024-01-27T14:03:35;6.78;;;3.03;;
31126;SDS011;17775;57.948;12.514;2024-01-27T14:06:04;6.13;;;2.75;;
31126;SDS011;17775;57.948;12.514;2024-01-27T14:08:31;7.22;;;2.65;;
31126;SDS011;17775;57.948;12.514;2024-01-27T14:10:57;12.63;;;3.58;;
31126;SDS011;17775;57.948;12.514;2024-01-27T14:13:24;7.00;;;2.10;;
31126;SDS011;17775;57.948;12.514;2024-01-27T14:15:50;7.75;;;2.47;;
31126;SDS011;17775;57.948;12.514;2024-01-27T14:18:17;9.25;;;2.47;;
31126;SDS011;17775;57.948;12.514;2024-01-27T14:20:48;14.55;;;4.30;;
31126;SDS011;17775;57.948;12.514;2024-01-27T14:23:15;11.77;;;3.22;;
31126;SDS011;17775;57.948;12.514;2024-01-27T14:25:41;10.60;;;3.17;;
31126;SDS011;17775;57.948;12.514;2024-01-27T14:30:40;13.18;;;3.33;;
31126;SDS011;17775;57.948;12.514;2024-01-27T14:33:07;5.97;;;2.30;;
31126;SDS011;17775;57.948;12.514;2024-01-27T14:35:33;13.15;;;3.15;;
31126;SDS011;17775;57.948;12.514;2024-01-27T14:38:00;9.82;;;2.55;;